N152CD KSYR-KBOS
Flight info
| Callsign | N152CD |
|---|---|
| Flight time | 0h 45m |
| Altitude | 33000 |
| Route | LAMMS PONCT JFUND2 |
| Aircraft | C700/M-SBDGHM1RWXY/LB2 |
Departure
| Time | 2026-04-16 21:08 |
|---|---|
| Airport | Syracuse Hancock International Airport (KSYR) |
Arrival
| Time | 2026-04-16 21:53 |
|---|---|
| Airport | Boston Logan International Airport (KBOS) |
| Time | Latitude | Longitude | Altitude | Speed | Heading |
|---|---|---|---|---|---|
| 2026-04-16 20:55 | 43.11145 | -76.11202 | 414 ft | 0 kts | 264° |
| 2026-04-16 21:03 | 43.11145 | -76.11203 | 423 ft | 1 kts | 264° |
| 2026-04-16 21:03 | 43.11143 | -76.11237 | 404 ft | 6 kts | 251° |
| 2026-04-16 21:04 | 43.11100 | -76.11259 | 415 ft | 8 kts | 187° |
| 2026-04-16 21:04 | 43.11030 | -76.11249 | 421 ft | 12 kts | 143° |
| 2026-04-16 21:04 | 43.10997 | -76.11141 | 422 ft | 14 kts | 108° |
| 2026-04-16 21:04 | 43.10998 | -76.10990 | 425 ft | 18 kts | 87° |
| 2026-04-16 21:05 | 43.11004 | -76.10794 | 421 ft | 23 kts | 88° |
| 2026-04-16 21:05 | 43.11012 | -76.10566 | 419 ft | 26 kts | 86° |
| 2026-04-16 21:05 | 43.11021 | -76.10314 | 412 ft | 28 kts | 88° |
| 2026-04-16 21:05 | 43.11030 | -76.10036 | 412 ft | 30 kts | 88° |
| 2026-04-16 21:06 | 43.11038 | -76.09746 | 414 ft | 22 kts | 86° |
| 2026-04-16 21:06 | 43.11046 | -76.09534 | 413 ft | 23 kts | 86° |
| 2026-04-16 21:06 | 43.11051 | -76.09333 | 419 ft | 12 kts | 92° |
| 2026-04-16 21:06 | 43.11031 | -76.09277 | 418 ft | 0 kts | 145° |
| 2026-04-16 21:07 | 43.11010 | -76.09269 | 414 ft | 10 kts | 168° |
| 2026-04-16 21:07 | 43.10924 | -76.09309 | 415 ft | 17 kts | 263° |
| 2026-04-16 21:07 | 43.10921 | -76.09542 | 414 ft | 46 kts | 268° |
| 2026-04-16 21:08 | 43.10888 | -76.10421 | 443 ft | 135 kts | 265° |
| 2026-04-16 21:08 | 43.10888 | -76.11998 | 1043 ft | 182 kts | 269° |
| 2026-04-16 21:08 | 43.10860 | -76.13765 | 2360 ft | 194 kts | 268° |
| 2026-04-16 21:08 | 43.10812 | -76.15670 | 3700 ft | 211 kts | 267° |
| 2026-04-16 21:09 | 43.10766 | -76.17902 | 4007 ft | 247 kts | 268° |
| 2026-04-16 21:09 | 43.10738 | -76.20250 | 4006 ft | 245 kts | 268° |
| 2026-04-16 21:09 | 43.10723 | -76.22566 | 4006 ft | 243 kts | 268° |
| 2026-04-16 21:09 | 43.10715 | -76.24879 | 4003 ft | 242 kts | 268° |
| 2026-04-16 21:10 | 43.10703 | -76.27174 | 4007 ft | 240 kts | 268° |
| 2026-04-16 21:10 | 43.10679 | -76.29490 | 4012 ft | 245 kts | 268° |
| 2026-04-16 21:10 | 43.10658 | -76.31843 | 4021 ft | 247 kts | 268° |
| 2026-04-16 21:10 | 43.10649 | -76.34182 | 4021 ft | 244 kts | 268° |
| 2026-04-16 21:11 | 43.10642 | -76.36499 | 4026 ft | 243 kts | 268° |
| 2026-04-16 21:11 | 43.10631 | -76.38801 | 4029 ft | 247 kts | 268° |
| 2026-04-16 21:11 | 43.10621 | -76.41185 | 4038 ft | 245 kts | 268° |
| 2026-04-16 21:11 | 43.10612 | -76.43504 | 4038 ft | 243 kts | 268° |
| 2026-04-16 21:12 | 43.10601 | -76.45800 | 4043 ft | 244 kts | 268° |
| 2026-04-16 21:12 | 43.11004 | -76.48060 | 4044 ft | 258 kts | 297° |
| 2026-04-16 21:12 | 43.12444 | -76.49614 | 5420 ft | 275 kts | 333° |
| 2026-04-16 21:12 | 43.14363 | -76.50023 | 7147 ft | 285 kts | 353° |
| 2026-04-16 21:13 | 43.16382 | -76.49961 | 8671 ft | 294 kts | 356° |
| 2026-04-16 21:13 | 43.18484 | -76.49791 | 9907 ft | 318 kts | 357° |
| 2026-04-16 21:13 | 43.20835 | -76.49379 | 10012 ft | 362 kts | 11° |
| 2026-04-16 21:13 | 43.23204 | -76.47733 | 10031 ft | 399 kts | 33° |
| 2026-04-16 21:14 | 43.25106 | -76.44920 | 10006 ft | 410 kts | 56° |
| 2026-04-16 21:14 | 43.26211 | -76.41309 | 9990 ft | 413 kts | 78° |
| 2026-04-16 21:14 | 43.26279 | -76.37515 | 10000 ft | 405 kts | 101° |
| 2026-04-16 21:14 | 43.25648 | -76.33767 | 10011 ft | 403 kts | 109° |
| 2026-04-16 21:15 | 43.24820 | -76.30086 | 10020 ft | 403 kts | 112° |
| 2026-04-16 21:15 | 43.23993 | -76.26424 | 10409 ft | 397 kts | 109° |
| 2026-04-16 21:15 | 43.23371 | -76.22874 | 12386 ft | 385 kts | 107° |
| 2026-04-16 21:15 | 43.22729 | -76.19235 | 13689 ft | 399 kts | 109° |
| 2026-04-16 21:16 | 43.21998 | -76.15525 | 14950 ft | 407 kts | 110° |
| 2026-04-16 21:16 | 43.21245 | -76.11727 | 16113 ft | 419 kts | 110° |
| 2026-04-16 21:16 | 43.20506 | -76.07809 | 17273 ft | 429 kts | 109° |
| 2026-04-16 21:16 | 43.19759 | -76.03805 | 18389 ft | 439 kts | 110° |
| 2026-04-16 21:17 | 43.18977 | -75.99732 | 19429 ft | 445 kts | 110° |
| 2026-04-16 21:17 | 43.18171 | -75.95589 | 20467 ft | 453 kts | 110° |
| 2026-04-16 21:17 | 43.17361 | -75.91381 | 21469 ft | 460 kts | 110° |
| 2026-04-16 21:17 | 43.16543 | -75.87113 | 22409 ft | 467 kts | 110° |
| 2026-04-16 21:18 | 43.15709 | -75.82787 | 23331 ft | 473 kts | 110° |
| 2026-04-16 21:18 | 43.14855 | -75.78395 | 24150 ft | 479 kts | 110° |
| 2026-04-16 21:18 | 43.13994 | -75.73963 | 24977 ft | 484 kts | 110° |
| 2026-04-16 21:18 | 43.13123 | -75.69484 | 25820 ft | 489 kts | 110° |
| 2026-04-16 21:19 | 43.12244 | -75.64968 | 26622 ft | 493 kts | 109° |
| 2026-04-16 21:19 | 43.11363 | -75.60468 | 27366 ft | 498 kts | 109° |
| 2026-04-16 21:19 | 43.10463 | -75.55876 | 28151 ft | 502 kts | 109° |
| 2026-04-16 21:19 | 43.09551 | -75.51233 | 28926 ft | 507 kts | 109° |
| 2026-04-16 21:20 | 43.08631 | -75.46557 | 29702 ft | 511 kts | 109° |
| 2026-04-16 21:20 | 43.07700 | -75.41842 | 30340 ft | 516 kts | 109° |
| 2026-04-16 21:20 | 43.06754 | -75.37063 | 30882 ft | 522 kts | 109° |
| 2026-04-16 21:20 | 43.05806 | -75.32276 | 31707 ft | 521 kts | 109° |
| 2026-04-16 21:21 | 43.04858 | -75.27495 | 32475 ft | 521 kts | 109° |
| 2026-04-16 21:21 | 43.03896 | -75.22685 | 32872 ft | 528 kts | 110° |
| 2026-04-16 21:21 | 43.02940 | -75.17891 | 33957 ft | 519 kts | 110° |
| 2026-04-16 21:21 | 43.01990 | -75.13131 | 34591 ft | 519 kts | 110° |
| 2026-04-16 21:22 | 43.01040 | -75.08418 | 34797 ft | 528 kts | 110° |
| 2026-04-16 21:22 | 43.00049 | -75.03526 | 34812 ft | 539 kts | 110° |
| 2026-04-16 21:22 | 42.99049 | -74.98553 | 34824 ft | 541 kts | 109° |
| 2026-04-16 21:23 | 42.97054 | -74.88663 | 34816 ft | 541 kts | 110° |
| 2026-04-16 21:23 | 42.95072 | -74.78924 | 34808 ft | 526 kts | 110° |
| 2026-04-16 21:24 | 42.93080 | -74.69202 | 34811 ft | 535 kts | 110° |
| 2026-04-16 21:24 | 42.91082 | -74.59447 | 34813 ft | 533 kts | 110° |
| 2026-04-16 21:25 | 42.89076 | -74.49741 | 34806 ft | 531 kts | 110° |
| 2026-04-16 21:25 | 42.87081 | -74.40117 | 34805 ft | 531 kts | 110° |
| 2026-04-16 21:26 | 42.85061 | -74.30418 | 34804 ft | 532 kts | 110° |
| 2026-04-16 21:26 | 42.83038 | -74.20751 | 34804 ft | 529 kts | 110° |
| 2026-04-16 21:27 | 42.81012 | -74.11117 | 34806 ft | 529 kts | 110° |
| 2026-04-16 21:27 | 42.78973 | -74.01467 | 34798 ft | 530 kts | 110° |
| 2026-04-16 21:28 | 42.76926 | -73.91820 | 34800 ft | 530 kts | 110° |
| 2026-04-16 21:28 | 42.75268 | -73.83782 | 34780 ft | 533 kts | 106° |
| 2026-04-16 21:29 | 42.74630 | -73.72019 | 34789 ft | 539 kts | 92° |
| 2026-04-16 21:29 | 42.74565 | -73.61817 | 34793 ft | 537 kts | 92° |
| 2026-04-16 21:30 | 42.74494 | -73.53386 | 34794 ft | 534 kts | 92° |
| 2026-04-16 21:30 | 42.74411 | -73.43279 | 34809 ft | 535 kts | 93° |
| 2026-04-16 21:31 | 42.74312 | -73.33127 | 34812 ft | 537 kts | 93° |
| 2026-04-16 21:31 | 42.74261 | -73.28036 | 34477 ft | 542 kts | 92° |
| 2026-04-16 21:31 | 42.74208 | -73.22912 | 33779 ft | 537 kts | 92° |
| 2026-04-16 21:31 | 42.74154 | -73.17884 | 33042 ft | 525 kts | 92° |
| 2026-04-16 21:32 | 42.74091 | -73.12965 | 32355 ft | 516 kts | 94° |
| 2026-04-16 21:32 | 42.73708 | -73.08151 | 31707 ft | 512 kts | 102° |
| 2026-04-16 21:32 | 42.73132 | -73.03312 | 31025 ft | 525 kts | 102° |
| 2026-04-16 21:32 | 42.72569 | -72.98435 | 30341 ft | 531 kts | 102° |
| 2026-04-16 21:33 | 42.72007 | -72.93458 | 29589 ft | 532 kts | 102° |
| 2026-04-16 21:33 | 42.71437 | -72.88522 | 28884 ft | 525 kts | 102° |
| 2026-04-16 21:33 | 42.70862 | -72.83656 | 28192 ft | 518 kts | 102° |
| 2026-04-16 21:33 | 42.70293 | -72.78848 | 27522 ft | 511 kts | 102° |
| 2026-04-16 21:34 | 42.69737 | -72.74093 | 26850 ft | 507 kts | 102° |
| 2026-04-16 21:34 | 42.69184 | -72.69380 | 26186 ft | 503 kts | 102° |
| 2026-04-16 21:34 | 42.68627 | -72.64693 | 25525 ft | 500 kts | 102° |
| 2026-04-16 21:34 | 42.68068 | -72.60027 | 24859 ft | 498 kts | 102° |
| 2026-04-16 21:35 | 42.67507 | -72.55399 | 24211 ft | 493 kts | 102° |
| 2026-04-16 21:35 | 42.66947 | -72.50819 | 23570 ft | 490 kts | 102° |
| 2026-04-16 21:35 | 42.66392 | -72.46274 | 22876 ft | 484 kts | 102° |
| 2026-04-16 21:35 | 42.65848 | -72.41810 | 22235 ft | 470 kts | 102° |
| 2026-04-16 21:36 | 42.65324 | -72.37521 | 21632 ft | 453 kts | 102° |
| 2026-04-16 21:36 | 42.64818 | -72.33421 | 21063 ft | 439 kts | 102° |
| 2026-04-16 21:36 | 42.64316 | -72.29360 | 20480 ft | 433 kts | 102° |
| 2026-04-16 21:36 | 42.63853 | -72.25343 | 19905 ft | 430 kts | 101° |
| 2026-04-16 21:37 | 42.63406 | -72.21324 | 19350 ft | 430 kts | 101° |
| 2026-04-16 21:37 | 42.62941 | -72.17311 | 18817 ft | 430 kts | 101° |
| 2026-04-16 21:37 | 42.62462 | -72.13317 | 18251 ft | 426 kts | 101° |
| 2026-04-16 21:37 | 42.61998 | -72.09381 | 17740 ft | 417 kts | 101° |
| 2026-04-16 21:38 | 42.61549 | -72.05513 | 17207 ft | 413 kts | 101° |
| 2026-04-16 21:38 | 42.61096 | -72.01681 | 16663 ft | 410 kts | 101° |
| 2026-04-16 21:38 | 42.60618 | -71.97878 | 16121 ft | 408 kts | 102° |
| 2026-04-16 21:38 | 42.60138 | -71.94094 | 15584 ft | 405 kts | 101° |
| 2026-04-16 21:39 | 42.59672 | -71.90333 | 15042 ft | 402 kts | 101° |
| 2026-04-16 21:39 | 42.59214 | -71.86608 | 14519 ft | 397 kts | 101° |
| 2026-04-16 21:39 | 42.58754 | -71.82929 | 14070 ft | 392 kts | 101° |
| 2026-04-16 21:39 | 42.58220 | -71.79343 | 13774 ft | 385 kts | 104° |
| 2026-04-16 21:40 | 42.57646 | -71.75785 | 13440 ft | 387 kts | 104° |
| 2026-04-16 21:40 | 42.57086 | -71.72221 | 13114 ft | 388 kts | 104° |
| 2026-04-16 21:40 | 42.56535 | -71.68682 | 12797 ft | 387 kts | 104° |
| 2026-04-16 21:40 | 42.55974 | -71.65136 | 12479 ft | 384 kts | 104° |
| 2026-04-16 21:41 | 42.55414 | -71.61631 | 12172 ft | 374 kts | 104° |
| 2026-04-16 21:41 | 42.54837 | -71.58232 | 11871 ft | 365 kts | 108° |
| 2026-04-16 21:41 | 42.54146 | -71.54936 | 11573 ft | 362 kts | 108° |
| 2026-04-16 21:41 | 42.53455 | -71.51641 | 11295 ft | 362 kts | 108° |
| 2026-04-16 21:42 | 42.52777 | -71.48346 | 11005 ft | 362 kts | 108° |
| 2026-04-16 21:42 | 42.52102 | -71.45071 | 10710 ft | 354 kts | 108° |
| 2026-04-16 21:42 | 42.51448 | -71.41926 | 10422 ft | 340 kts | 108° |
| 2026-04-16 21:42 | 42.50816 | -71.38902 | 10151 ft | 329 kts | 108° |
| 2026-04-16 21:43 | 42.50196 | -71.35939 | 9902 ft | 326 kts | 108° |
| 2026-04-16 21:43 | 42.49597 | -71.32969 | 9620 ft | 327 kts | 108° |
| 2026-04-16 21:43 | 42.49015 | -71.29985 | 9338 ft | 327 kts | 107° |
| 2026-04-16 21:43 | 42.48428 | -71.27018 | 9066 ft | 325 kts | 108° |
| 2026-04-16 21:44 | 42.47842 | -71.24109 | 8842 ft | 323 kts | 108° |
| 2026-04-16 21:44 | 42.47252 | -71.21184 | 8580 ft | 320 kts | 108° |
| 2026-04-16 21:44 | 42.46672 | -71.18286 | 8317 ft | 317 kts | 108° |
| 2026-04-16 21:44 | 42.46122 | -71.15404 | 8059 ft | 314 kts | 104° |
| 2026-04-16 21:45 | 42.45855 | -71.12510 | 7819 ft | 304 kts | 98° |
| 2026-04-16 21:45 | 42.45611 | -71.09712 | 7575 ft | 294 kts | 100° |
| 2026-04-16 21:45 | 42.45301 | -71.07023 | 7337 ft | 283 kts | 108° |
| 2026-04-16 21:45 | 42.44594 | -71.04613 | 7110 ft | 270 kts | 123° |
| 2026-04-16 21:46 | 42.43543 | -71.02603 | 7001 ft | 253 kts | 138° |
| 2026-04-16 21:46 | 42.42258 | -71.01041 | 6994 ft | 248 kts | 151° |
| 2026-04-16 21:46 | 42.40752 | -70.99882 | 7002 ft | 250 kts | 161° |
| 2026-04-16 21:46 | 42.39153 | -70.98833 | 7008 ft | 268 kts | 161° |
| 2026-04-16 21:47 | 42.37401 | -70.97671 | 6832 ft | 286 kts | 160° |
| 2026-04-16 21:47 | 42.35623 | -70.96467 | 6601 ft | 285 kts | 159° |
| 2026-04-16 21:47 | 42.33856 | -70.95292 | 6364 ft | 280 kts | 162° |
| 2026-04-16 21:47 | 42.32027 | -70.94551 | 6114 ft | 271 kts | 175° |
| 2026-04-16 21:48 | 42.30187 | -70.94376 | 6002 ft | 259 kts | 187° |
| 2026-04-16 21:48 | 42.28420 | -70.94698 | 5894 ft | 259 kts | 198° |
| 2026-04-16 21:48 | 42.26692 | -70.95427 | 5395 ft | 267 kts | 201° |
| 2026-04-16 21:48 | 42.24956 | -70.96180 | 4790 ft | 256 kts | 200° |
| 2026-04-16 21:49 | 42.23251 | -70.96905 | 4265 ft | 256 kts | 200° |
| 2026-04-16 21:49 | 42.21664 | -70.97873 | 3797 ft | 248 kts | 219° |
| 2026-04-16 21:49 | 42.20630 | -70.99689 | 3372 ft | 244 kts | 241° |
| 2026-04-16 21:49 | 42.20181 | -71.01829 | 3088 ft | 230 kts | 266° |
| 2026-04-16 21:50 | 42.20514 | -71.03785 | 2793 ft | 216 kts | 286° |
| 2026-04-16 21:50 | 42.21473 | -71.05397 | 2494 ft | 232 kts | 321° |
| 2026-04-16 21:50 | 42.22959 | -71.05989 | 2461 ft | 216 kts | 352° |
| 2026-04-16 21:50 | 42.24453 | -71.06022 | 2465 ft | 213 kts | 359° |
| 2026-04-16 21:51 | 42.25908 | -71.05636 | 2466 ft | 214 kts | 19° |
| 2026-04-16 21:51 | 42.27298 | -71.04885 | 2255 ft | 221 kts | 24° |
| 2026-04-16 21:51 | 42.28741 | -71.04169 | 1750 ft | 218 kts | 19° |
| 2026-04-16 21:51 | 42.30057 | -71.03654 | 1600 ft | 184 kts | 18° |
| 2026-04-16 21:52 | 42.31241 | -71.03131 | 1383 ft | 168 kts | 28° |
| 2026-04-16 21:52 | 42.32244 | -71.02520 | 918 ft | 148 kts | 28° |
| 2026-04-16 21:52 | 42.33159 | -71.02155 | 424 ft | 129 kts | 21° |
| 2026-04-16 21:52 | 42.33895 | -71.01803 | 264 ft | 115 kts | 25° |
| 2026-04-16 21:53 | 42.34769 | -71.01389 | 182 ft | 145 kts | 28° |
| 2026-04-16 21:53 | 42.35572 | -71.00972 | 31 ft | 108 kts | 24° |
| 2026-04-16 21:53 | 42.35992 | -71.00753 | 17 ft | 30 kts | 20° |
| 2026-04-16 21:53 | 42.36142 | -71.00717 | 18 ft | 9 kts | 291° |
| 2026-04-16 21:54 | 42.36150 | -71.00808 | 21 ft | 11 kts | 292° |
| 2026-04-16 21:54 | 42.36183 | -71.00908 | 20 ft | 13 kts | 295° |
| 2026-04-16 21:54 | 42.36224 | -71.01036 | 20 ft | 12 kts | 294° |
| 2026-04-16 21:54 | 42.36235 | -71.01067 | 21 ft | 6 kts | 294° |
| 2026-04-16 21:55 | 42.36259 | -71.01137 | 21 ft | 10 kts | 296° |
| 2026-04-16 21:55 | 42.36264 | -71.01152 | 22 ft | 0 kts | 296° |
| 2026-04-16 21:55 | 42.36264 | -71.01153 | 22 ft | 1 kts | 296° |
| 2026-04-16 21:55 | 42.36325 | -71.01291 | 20 ft | 19 kts | 302° |
| 2026-04-16 21:56 | 42.36367 | -71.01314 | 21 ft | 5 kts | 8° |
| 2026-04-16 21:56 | 42.36423 | -71.01290 | 19 ft | 11 kts | 20° |
| 2026-04-16 21:56 | 42.36515 | -71.01246 | 19 ft | 17 kts | 20° |
| 2026-04-16 21:56 | 42.36632 | -71.01188 | 22 ft | 19 kts | 20° |
| 2026-04-16 21:57 | 42.36753 | -71.01139 | 21 ft | 12 kts | 359° |
| 2026-04-16 21:57 | 42.36835 | -71.01203 | 19 ft | 16 kts | 315° |
| 2026-04-16 21:57 | 42.36923 | -71.01321 | 20 ft | 19 kts | 315° |
| 2026-04-16 21:57 | 42.37013 | -71.01442 | 20 ft | 19 kts | 315° |
| 2026-04-16 21:58 | 42.37095 | -71.01551 | 23 ft | 15 kts | 315° |
| 2026-04-16 21:58 | 42.37176 | -71.01661 | 25 ft | 18 kts | 315° |
| 2026-04-16 21:58 | 42.37270 | -71.01786 | 24 ft | 15 kts | 315° |
| 2026-04-16 21:58 | 42.37352 | -71.01896 | 24 ft | 19 kts | 315° |
| 2026-04-16 21:59 | 42.37431 | -71.02003 | 20 ft | 14 kts | 315° |
| 2026-04-16 21:59 | 42.37492 | -71.02088 | 20 ft | 11 kts | 301° |
| 2026-04-16 21:59 | 42.37471 | -71.02147 | 22 ft | 2 kts | 210° |
| 2026-04-16 21:59 | 42.37461 | -71.02145 | 21 ft | 2 kts | 155° |
| 2026-04-16 22:00 | 42.37449 | -71.02129 | 20 ft | 3 kts | 135° |
| 2026-04-16 22:00 | 42.37446 | -71.02125 | 20 ft | 0 kts | 135° |